createdAt,value
2022-12-24T00:00:07.358Z,20.98
2022-12-24T00:02:34.313Z,28.30
2022-12-24T00:05:01.645Z,29.63
2022-12-24T00:07:28.716Z,20.90
2022-12-24T00:09:55.335Z,26.05
2022-12-24T00:12:22.039Z,22.90
2022-12-24T00:14:48.514Z,29.10
2022-12-24T00:17:15.147Z,25.55
2022-12-24T00:19:43.325Z,28.80
2022-12-24T00:22:09.965Z,27.02
2022-12-24T00:24:37.125Z,31.45
2022-12-24T00:27:05.656Z,27.02
2022-12-24T00:29:32.835Z,30.88
2022-12-24T00:31:59.777Z,22.17
2022-12-24T00:34:26.886Z,42.45
2022-12-24T00:36:53.459Z,27.02
2022-12-24T00:39:19.966Z,18.98
2022-12-24T00:41:46.522Z,17.38
2022-12-24T00:44:13.355Z,30.87
2022-12-24T00:46:41.462Z,25.27
2022-12-24T00:49:08.984Z,31.38
2022-12-24T00:51:37.114Z,26.55
2022-12-24T00:54:04.216Z,36.25
2022-12-24T00:56:30.831Z,31.03
2022-12-24T00:58:57.486Z,31.52
2022-12-24T01:01:25.551Z,30.25
2022-12-24T01:03:53.122Z,33.58
2022-12-24T01:06:21.388Z,22.33
2022-12-24T01:08:51.399Z,33.20
2022-12-24T01:11:18.532Z,21.23
2022-12-24T01:13:45.029Z,24.80
2022-12-24T01:16:20.813Z,24.58
2022-12-24T01:18:48.543Z,26.23
2022-12-24T01:21:15.461Z,26.80
2022-12-24T01:23:42.030Z,30.92
2022-12-24T01:26:12.102Z,28.52
2022-12-24T01:28:38.759Z,25.60
2022-12-24T01:31:17.161Z,28.25
2022-12-24T01:33:45.010Z,39.17
2022-12-24T01:36:12.615Z,21.75
2022-12-24T01:38:39.651Z,24.70
2022-12-24T01:41:25.209Z,25.20
2022-12-24T01:43:51.795Z,20.83
2022-12-24T01:46:30.066Z,20.40
2022-12-24T01:49:00.246Z,23.42
2022-12-24T01:51:56.011Z,26.05
2022-12-24T01:54:33.429Z,21.83
2022-12-24T01:57:11.281Z,23.15
2022-12-24T01:59:40.055Z,29.97
2022-12-24T02:02:07.213Z,26.35
2022-12-24T02:04:56.402Z,28.83
2022-12-24T02:07:23.205Z,25.65
2022-12-24T02:09:54.291Z,33.17
2022-12-24T02:12:20.951Z,20.20
2022-12-24T02:14:47.587Z,19.83
2022-12-24T02:17:20.189Z,33.58
2022-12-24T02:20:22.033Z,29.40
2022-12-24T02:23:09.635Z,26.73
2022-12-24T02:25:45.261Z,22.08
2022-12-24T02:28:30.491Z,25.77
2022-12-24T02:31:13.813Z,24.95
2022-12-24T02:33:59.041Z,19.90
2022-12-24T02:36:33.102Z,26.38
2022-12-24T02:39:06.229Z,27.80
2022-12-24T02:42:18.496Z,24.23
2022-12-24T02:44:50.966Z,23.65
2022-12-24T02:47:20.492Z,29.15
2022-12-24T02:49:48.591Z,22.17
2022-12-24T02:52:38.505Z,25.92
2022-12-24T02:55:12.212Z,24.63
2022-12-24T02:58:00.475Z,28.17
2022-12-24T03:00:35.460Z,23.70
2022-12-24T03:03:09.260Z,20.98
2022-12-24T03:06:11.671Z,25.15
2022-12-24T03:08:53.022Z,22.20
2022-12-24T03:11:20.039Z,31.70
2022-12-24T03:13:48.529Z,28.55
2022-12-24T03:16:21.338Z,32.42
2022-12-24T03:18:50.817Z,28.25
2022-12-24T03:21:24.125Z,17.87
2022-12-24T03:23:50.660Z,38.08
2022-12-24T03:26:19.393Z,27.65
2022-12-24T03:28:47.293Z,26.70
2022-12-24T03:31:14.458Z,27.13
2022-12-24T03:33:41.676Z,24.63
2022-12-24T03:36:09.118Z,23.92
2022-12-24T03:38:36.079Z,31.60
2022-12-24T03:41:03.855Z,31.13
2022-12-24T03:43:30.413Z,17.73
2022-12-24T03:45:57.018Z,20.67
2022-12-24T03:48:27.457Z,28.75
2022-12-24T03:50:58.922Z,24.08
2022-12-24T03:53:25.386Z,27.20
2022-12-24T03:55:51.849Z,20.92
2022-12-24T03:58:18.331Z,31.77
2022-12-24T04:00:48.070Z,27.98
2022-12-24T04:03:14.656Z,28.77
2022-12-24T04:05:41.432Z,20.08
2022-12-24T04:08:07.943Z,22.13
2022-12-24T04:10:34.419Z,8.87
2022-12-24T04:13:00.941Z,20.30
2022-12-24T04:15:27.410Z,24.83
2022-12-24T04:17:53.868Z,30.90
2022-12-24T04:20:20.483Z,24.90
2022-12-24T04:22:47.027Z,19.93
2022-12-24T04:25:13.562Z,30.02
2022-12-24T04:27:40.099Z,28.30
2022-12-24T04:30:07.353Z,25.27
2022-12-24T04:32:33.926Z,26.05
2022-12-24T04:35:00.392Z,16.53
2022-12-24T04:37:26.879Z,23.63
2022-12-24T04:39:53.433Z,11.75
2022-12-24T04:42:19.891Z,22.30
2022-12-24T04:44:46.395Z,20.83
2022-12-24T04:47:13.000Z,24.53
2022-12-24T04:49:39.550Z,25.63
2022-12-24T04:52:06.024Z,15.40
2022-12-24T04:54:32.548Z,17.42
2022-12-24T04:56:59.099Z,18.65
2022-12-24T04:59:25.573Z,18.87
2022-12-24T05:01:52.210Z,22.52
2022-12-24T05:04:18.783Z,23.48
2022-12-24T05:06:45.264Z,18.67
2022-12-24T05:09:11.757Z,28.23
2022-12-24T05:11:38.264Z,20.23
2022-12-24T05:14:04.869Z,24.98
2022-12-24T05:16:31.421Z,19.40
2022-12-24T05:18:57.952Z,19.20
2022-12-24T05:21:25.057Z,14.13
2022-12-24T05:24:11.800Z,18.73
2022-12-24T05:26:54.948Z,24.77
2022-12-24T05:29:22.060Z,23.63
2022-12-24T05:31:48.758Z,18.13
2022-12-24T05:34:16.625Z,20.60
2022-12-24T05:36:44.188Z,24.00
2022-12-24T05:39:16.217Z,25.05
2022-12-24T05:41:43.807Z,14.38
2022-12-24T05:44:10.463Z,24.70
2022-12-24T05:46:37.217Z,26.05
2022-12-24T05:49:03.903Z,21.43
2022-12-24T05:51:30.374Z,24.80
2022-12-24T05:53:56.879Z,33.47
2022-12-24T05:56:24.847Z,19.85
2022-12-24T05:58:53.561Z,29.17
2022-12-24T06:01:21.704Z,29.13
2022-12-24T06:03:49.929Z,17.50
2022-12-24T06:06:20.810Z,19.80
2022-12-24T06:08:48.499Z,17.25
2022-12-24T06:11:18.499Z,32.10
2022-12-24T06:13:45.133Z,18.13
2022-12-24T06:16:14.372Z,19.67
2022-12-24T06:18:41.544Z,21.33
2022-12-24T06:21:09.073Z,20.92
2022-12-24T06:23:38.093Z,17.80
2022-12-24T06:26:07.799Z,20.07
2022-12-24T06:28:36.307Z,25.75
2022-12-24T06:31:04.146Z,16.70
2022-12-24T06:33:32.196Z,21.77
2022-12-24T06:35:59.527Z,22.98
2022-12-24T06:38:32.101Z,16.50
2022-12-24T06:40:58.698Z,18.40
2022-12-24T06:43:25.722Z,19.17
2022-12-24T06:45:52.332Z,22.27
2022-12-24T06:48:18.825Z,25.35
2022-12-24T06:50:45.294Z,25.57
2022-12-24T06:53:11.980Z,25.50
2022-12-24T06:55:38.697Z,18.58
2022-12-24T06:58:05.775Z,18.60
2022-12-24T07:00:32.370Z,22.55
2022-12-24T07:02:59.041Z,23.00
2022-12-24T07:05:25.767Z,34.15
2022-12-24T07:07:52.394Z,14.32
2022-12-24T07:10:20.431Z,12.10
2022-12-24T07:12:47.691Z,20.80
2022-12-24T07:15:15.114Z,29.40
2022-12-24T07:17:41.921Z,18.75
2022-12-24T07:20:12.516Z,15.02
2022-12-24T07:22:39.019Z,24.45
2022-12-24T07:25:06.064Z,18.38
2022-12-24T07:27:32.714Z,22.57
2022-12-24T07:29:59.180Z,31.77
2022-12-24T07:32:25.911Z,17.55
2022-12-24T07:34:52.518Z,17.15
2022-12-24T07:37:19.001Z,26.40
2022-12-24T07:39:45.768Z,21.07
2022-12-24T07:42:12.274Z,23.88
2022-12-24T07:44:38.905Z,22.80
2022-12-24T07:47:05.472Z,16.85
2022-12-24T07:49:32.041Z,20.17
2022-12-24T07:51:58.611Z,19.23
2022-12-24T07:54:25.091Z,24.83
2022-12-24T07:56:51.640Z,18.65
2022-12-24T07:59:18.137Z,18.90
2022-12-24T08:01:45.775Z,21.13
2022-12-24T08:04:12.914Z,13.50
2022-12-24T08:06:40.092Z,22.90
2022-12-24T08:09:06.829Z,22.77
2022-12-24T08:11:33.554Z,23.00
2022-12-24T08:14:00.079Z,18.80
2022-12-24T08:16:26.586Z,15.07
2022-12-24T08:18:53.133Z,12.63
2022-12-24T08:21:19.583Z,18.15
2022-12-24T08:23:46.898Z,17.65
2022-12-24T08:26:13.783Z,20.20
2022-12-24T08:28:40.699Z,16.07
2022-12-24T08:31:07.502Z,14.63
2022-12-24T08:33:34.399Z,25.73
2022-12-24T08:36:02.634Z,13.40
2022-12-24T08:38:29.295Z,20.73
2022-12-24T08:40:55.955Z,16.63
2022-12-24T08:43:22.794Z,23.30
2022-12-24T08:45:50.093Z,25.20
2022-12-24T08:48:17.356Z,12.75
2022-12-24T08:50:44.223Z,19.17
2022-12-24T08:53:11.076Z,17.03
2022-12-24T08:55:38.128Z,19.60
2022-12-24T08:58:04.761Z,17.15
2022-12-24T09:00:31.574Z,14.15
2022-12-24T09:02:58.404Z,18.67
2022-12-24T09:05:26.131Z,21.00
2022-12-24T09:07:52.909Z,17.95
2022-12-24T09:10:19.806Z,25.10
2022-12-24T09:12:46.755Z,27.13
2022-12-24T09:15:14.350Z,15.52
2022-12-24T09:17:41.283Z,16.07
2022-12-24T09:20:08.697Z,20.05
2022-12-24T09:22:37.494Z,15.90
2022-12-24T09:25:06.352Z,29.30
2022-12-24T09:27:33.705Z,32.53
2022-12-24T09:30:00.353Z,18.10
2022-12-24T09:32:26.917Z,19.58
2022-12-24T09:34:53.774Z,20.67
2022-12-24T09:37:20.595Z,31.52
2022-12-24T09:39:47.081Z,24.98
2022-12-24T09:42:41.393Z,18.97
2022-12-24T09:45:24.482Z,28.50
2022-12-24T09:47:55.506Z,21.38
2022-12-24T09:50:31.204Z,29.70
2022-12-24T09:53:00.774Z,21.27
2022-12-24T09:55:32.607Z,22.57
2022-12-24T09:58:02.501Z,35.95
2022-12-24T10:00:37.637Z,30.38
2022-12-24T10:03:17.788Z,26.95
2022-12-24T10:06:05.728Z,27.38
2022-12-24T10:08:44.425Z,28.50
2022-12-24T10:11:20.544Z,18.45
2022-12-24T10:14:23.191Z,19.92
2022-12-24T10:17:15.871Z,20.27
2022-12-24T10:20:07.298Z,24.60
2022-12-24T10:22:44.085Z,18.03
2022-12-24T10:25:20.549Z,32.35
2022-12-24T10:27:47.817Z,29.60
2022-12-24T10:30:17.775Z,25.98
2022-12-24T10:32:47.190Z,18.85
2022-12-24T10:35:16.666Z,28.03
2022-12-24T10:37:45.181Z,22.02
2022-12-24T10:40:37.993Z,30.80
2022-12-24T10:43:23.234Z,29.02
2022-12-24T10:45:53.738Z,31.77
2022-12-24T10:48:30.394Z,27.50
2022-12-24T10:51:02.721Z,24.08
2022-12-24T10:53:40.493Z,28.80
2022-12-24T10:56:10.251Z,25.05
2022-12-24T10:58:37.333Z,20.40
2022-12-24T11:01:04.263Z,22.53
2022-12-24T11:03:34.890Z,20.88
2022-12-24T11:06:13.491Z,21.10
2022-12-24T11:08:45.332Z,24.65
2022-12-24T11:11:15.640Z,25.45
2022-12-24T11:13:57.143Z,20.00
2022-12-24T11:16:26.477Z,24.10
2022-12-24T11:18:56.069Z,19.67
2022-12-24T11:21:28.695Z,21.23
2022-12-24T11:24:20.200Z,19.35
2022-12-24T11:26:46.706Z,28.17
2022-12-24T11:29:16.075Z,23.15
2022-12-24T11:31:44.412Z,24.10
2022-12-24T11:34:22.566Z,14.88
2022-12-24T11:36:50.890Z,23.13
2022-12-24T11:39:23.414Z,17.80
2022-12-24T11:41:53.777Z,25.13
2022-12-24T11:44:26.741Z,18.95
2022-12-24T11:46:57.242Z,21.33
2022-12-24T11:49:27.945Z,21.63
2022-12-24T11:52:22.201Z,21.60
2022-12-24T11:54:59.809Z,22.88
2022-12-24T11:57:32.954Z,23.00
2022-12-24T11:59:59.497Z,26.65
2022-12-24T12:02:38.081Z,27.52
2022-12-24T12:05:11.348Z,26.90
2022-12-24T12:07:39.095Z,26.65
2022-12-24T12:10:20.905Z,28.65
2022-12-24T12:12:57.892Z,23.02
2022-12-24T12:15:28.512Z,30.58
2022-12-24T12:18:00.695Z,16.67
2022-12-24T12:20:39.288Z,25.20
2022-12-24T12:23:18.624Z,26.52
2022-12-24T12:26:01.789Z,22.20
2022-12-24T12:28:46.946Z,22.73
2022-12-24T12:31:22.335Z,23.10
2022-12-24T12:33:57.311Z,22.45
2022-12-24T12:36:31.420Z,26.70
2022-12-24T12:38:58.048Z,29.27
2022-12-24T12:41:27.258Z,27.85
2022-12-24T12:44:04.759Z,21.60
2022-12-24T12:46:47.971Z,20.30
2022-12-24T12:49:14.420Z,24.63
2022-12-24T12:51:57.906Z,20.13
2022-12-24T12:54:46.100Z,23.77
2022-12-24T12:57:17.009Z,24.33
2022-12-24T12:59:53.888Z,33.67
2022-12-24T13:03:14.847Z,29.23
2022-12-24T13:05:53.446Z,20.92
2022-12-24T13:08:31.983Z,24.20
2022-12-24T13:11:24.875Z,26.63
2022-12-24T13:14:16.162Z,28.63
2022-12-24T13:16:53.330Z,17.70
2022-12-24T13:19:56.763Z,19.65
2022-12-24T13:22:23.420Z,30.45
2022-12-24T13:24:59.165Z,18.93
2022-12-24T13:27:32.141Z,22.02
2022-12-24T13:30:09.638Z,26.42
2022-12-24T13:32:47.458Z,25.77
2022-12-24T13:35:19.979Z,21.63
2022-12-24T13:37:50.804Z,29.60
2022-12-24T13:40:27.037Z,22.95
2022-12-24T13:43:00.088Z,23.30
2022-12-24T13:45:29.879Z,18.10
2022-12-24T13:48:05.586Z,25.95
2022-12-24T13:50:50.406Z,28.23
2022-12-24T13:53:26.505Z,22.45
2022-12-24T13:55:55.782Z,31.27
2022-12-24T13:58:24.852Z,32.13
2022-12-24T14:01:02.072Z,26.52
2022-12-24T14:03:36.147Z,31.13
2022-12-24T14:06:13.756Z,19.35
2022-12-24T14:08:45.912Z,31.60
2022-12-24T14:11:14.248Z,22.65
2022-12-24T14:13:40.838Z,23.58
2022-12-24T14:16:28.575Z,22.77
2022-12-24T14:19:38.967Z,27.38
2022-12-24T14:22:34.101Z,22.27
2022-12-24T14:25:17.984Z,21.67
2022-12-24T14:27:54.151Z,25.38
2022-12-24T14:30:26.272Z,17.63
2022-12-24T14:32:54.156Z,25.17
2022-12-24T14:35:30.685Z,18.77
2022-12-24T14:37:58.756Z,29.27
2022-12-24T14:40:30.607Z,20.95
2022-12-24T14:43:16.447Z,22.30
2022-12-24T14:45:56.430Z,21.77
2022-12-24T14:48:29.820Z,25.70
2022-12-24T14:51:10.026Z,22.35
2022-12-24T14:54:19.084Z,18.80
2022-12-24T14:56:45.610Z,35.20
2022-12-24T14:59:17.239Z,18.02
2022-12-24T15:01:44.374Z,23.40
2022-12-24T15:04:10.909Z,30.02
2022-12-24T15:06:40.425Z,32.97
2022-12-24T15:09:19.592Z,23.63
2022-12-24T15:11:48.360Z,22.52
2022-12-24T15:14:16.457Z,23.02
2022-12-24T15:16:58.196Z,33.38
2022-12-24T15:19:29.166Z,34.55
2022-12-24T15:21:55.956Z,44.17
2022-12-24T15:24:32.256Z,27.70
2022-12-24T15:27:00.132Z,28.38
2022-12-24T15:29:32.490Z,24.13
2022-12-24T15:32:05.702Z,31.30
2022-12-24T15:34:36.043Z,28.77
2022-12-24T15:37:18.081Z,29.48
2022-12-24T15:39:52.230Z,32.58
2022-12-24T15:42:22.373Z,37.85
2022-12-24T15:45:05.895Z,31.42
2022-12-24T15:47:42.774Z,27.10
2022-12-24T15:50:17.154Z,23.05
2022-12-24T15:52:44.511Z,25.58
2022-12-24T15:55:33.533Z,34.30
2022-12-24T15:58:02.323Z,23.67
2022-12-24T16:00:31.224Z,28.97
2022-12-24T16:03:30.379Z,31.73
2022-12-24T16:06:01.220Z,28.88
2022-12-24T16:08:33.217Z,28.58
2022-12-24T16:11:05.881Z,29.55
2022-12-24T16:13:39.696Z,30.67
2022-12-24T16:16:08.586Z,23.33
2022-12-24T16:18:38.847Z,30.27
2022-12-24T16:21:07.440Z,24.67
2022-12-24T16:23:46.176Z,30.10
2022-12-24T16:26:12.772Z,28.77
2022-12-24T16:28:39.489Z,31.05
2022-12-24T16:31:06.151Z,35.60
2022-12-24T16:33:32.696Z,34.63
2022-12-24T16:35:59.354Z,33.00
2022-12-24T16:38:25.968Z,35.07
2022-12-24T16:40:52.795Z,45.38
2022-12-24T16:43:37.988Z,39.90
2022-12-24T16:46:07.399Z,35.50
2022-12-24T16:48:37.520Z,40.38
2022-12-24T16:51:04.120Z,29.30
2022-12-24T16:53:30.770Z,32.58
2022-12-24T16:55:57.277Z,28.52
2022-12-24T16:58:23.774Z,28.52
2022-12-24T17:00:50.272Z,23.92
2022-12-24T17:03:17.051Z,22.27
2022-12-24T17:05:44.577Z,27.58
2022-12-24T17:08:12.193Z,29.33
2022-12-24T17:10:38.982Z,33.22
2022-12-24T17:13:05.803Z,32.65
2022-12-24T17:15:32.705Z,29.47
2022-12-24T17:17:59.322Z,31.77
2022-12-24T17:20:26.530Z,27.63
2022-12-24T17:22:53.094Z,30.77
2022-12-24T17:25:19.820Z,31.52
2022-12-24T17:27:46.356Z,38.20
2022-12-24T17:30:13.189Z,34.72
2022-12-24T17:32:39.889Z,34.65
2022-12-24T17:35:07.645Z,33.42
2022-12-24T17:37:34.213Z,26.20
2022-12-24T17:40:00.902Z,29.90
2022-12-24T17:42:27.495Z,24.20
2022-12-24T17:44:53.988Z,37.00
2022-12-24T17:47:20.443Z,24.75
2022-12-24T17:49:46.974Z,27.83
2022-12-24T17:52:13.545Z,21.40
2022-12-24T17:54:40.084Z,22.30
2022-12-24T17:57:06.650Z,21.55
2022-12-24T17:59:33.145Z,18.55
2022-12-24T18:01:59.886Z,24.40
2022-12-24T18:04:26.579Z,18.13
2022-12-24T18:06:59.658Z,24.42
2022-12-24T18:09:28.949Z,28.58
2022-12-24T18:11:55.535Z,22.75
2022-12-24T18:14:22.089Z,20.05
2022-12-24T18:16:49.473Z,19.63
2022-12-24T18:19:16.403Z,33.30
2022-12-24T18:21:42.929Z,32.58
2022-12-24T18:24:12.343Z,26.90
2022-12-24T18:26:39.368Z,33.45
2022-12-24T18:29:06.134Z,27.17
2022-12-24T18:31:34.249Z,19.77
2022-12-24T18:34:02.952Z,24.80
2022-12-24T18:36:29.818Z,25.70
2022-12-24T18:38:56.828Z,20.40
2022-12-24T18:41:26.939Z,20.53
2022-12-24T18:43:54.623Z,21.13
2022-12-24T18:46:27.214Z,23.27
2022-12-24T18:48:57.615Z,20.10
2022-12-24T18:51:26.815Z,13.50
2022-12-24T18:53:53.295Z,16.73
2022-12-24T18:56:24.773Z,20.75
2022-12-24T18:59:01.633Z,24.48
2022-12-24T19:01:33.850Z,20.90
2022-12-24T19:04:00.911Z,17.98
2022-12-24T19:06:27.921Z,21.07
2022-12-24T19:08:58.559Z,19.00
2022-12-24T19:11:28.630Z,20.65
2022-12-24T19:13:55.413Z,13.88
2022-12-24T19:16:22.461Z,15.68
2022-12-24T19:18:49.836Z,15.40
2022-12-24T19:21:17.846Z,17.05
2022-12-24T19:23:45.589Z,19.27
2022-12-24T19:26:13.387Z,13.75
2022-12-24T19:28:40.263Z,16.38
2022-12-24T19:31:10.052Z,13.93
2022-12-24T19:33:43.883Z,18.75
2022-12-24T19:36:16.649Z,15.23
2022-12-24T19:38:43.906Z,13.52
2022-12-24T19:41:16.032Z,10.88
2022-12-24T19:43:45.384Z,15.27
2022-12-24T19:46:14.617Z,11.88
2022-12-24T19:48:42.607Z,15.82
2022-12-24T19:51:12.242Z,12.07
2022-12-24T19:53:39.583Z,12.85
2022-12-24T19:56:06.954Z,13.77
2022-12-24T19:58:33.513Z,12.68
2022-12-24T20:01:15.646Z,17.15
2022-12-24T20:03:44.331Z,10.77
2022-12-24T20:06:11.769Z,12.48
2022-12-24T20:08:38.762Z,9.20
2022-12-24T20:11:07.954Z,9.05
2022-12-24T20:13:35.358Z,11.23
2022-12-24T20:16:17.454Z,11.80
2022-12-24T20:18:44.118Z,16.65
2022-12-24T20:21:13.081Z,15.67
2022-12-24T20:23:41.190Z,9.40
2022-12-24T20:26:11.029Z,14.85
2022-12-24T20:28:38.505Z,11.88
2022-12-24T20:31:13.668Z,12.60
2022-12-24T20:33:41.351Z,15.47
2022-12-24T20:36:11.316Z,12.95
2022-12-24T20:38:39.058Z,10.43
2022-12-24T20:41:06.369Z,11.65
2022-12-24T20:43:37.304Z,10.75
2022-12-24T20:46:07.161Z,15.60
2022-12-24T20:48:33.872Z,10.55
2022-12-24T20:51:04.544Z,8.98
2022-12-24T20:53:31.057Z,10.88
2022-12-24T20:55:58.148Z,10.32
2022-12-24T20:58:24.661Z,14.77
2022-12-24T21:00:51.423Z,11.05
2022-12-24T21:03:18.775Z,15.85
2022-12-24T21:05:45.972Z,9.93
2022-12-24T21:08:13.513Z,8.82
2022-12-24T21:10:40.420Z,9.13
2022-12-24T21:13:07.532Z,7.05
2022-12-24T21:15:36.706Z,9.52
2022-12-24T21:18:10.201Z,8.63
2022-12-24T21:20:37.132Z,4.88
2022-12-24T21:23:03.709Z,6.80
2022-12-24T21:25:30.248Z,11.70
2022-12-24T21:27:56.740Z,8.02
2022-12-24T21:30:24.360Z,9.50
2022-12-24T21:32:51.307Z,9.63
2022-12-24T21:35:17.883Z,10.87
2022-12-24T21:37:44.500Z,9.70
2022-12-24T21:40:12.403Z,8.23
2022-12-24T21:42:38.914Z,6.82
2022-12-24T21:45:06.928Z,8.73
2022-12-24T21:47:35.261Z,14.30
2022-12-24T21:50:20.403Z,9.27
2022-12-24T21:52:46.933Z,9.85
2022-12-24T21:55:13.434Z,7.20
2022-12-24T21:57:55.078Z,8.20
2022-12-24T22:00:21.689Z,8.37
2022-12-24T22:02:54.098Z,7.90
2022-12-24T22:05:21.070Z,7.28
2022-12-24T22:08:07.955Z,7.63
2022-12-24T22:10:53.048Z,8.43
2022-12-24T22:13:20.623Z,4.33
2022-12-24T22:15:53.107Z,6.32
2022-12-24T22:18:22.643Z,5.43
2022-12-24T22:20:49.559Z,9.40
2022-12-24T22:23:17.500Z,9.43
2022-12-24T22:25:44.861Z,5.77
2022-12-24T22:28:11.743Z,6.47
2022-12-24T22:30:42.617Z,8.10
2022-12-24T22:33:10.035Z,6.68
2022-12-24T22:35:40.405Z,6.95
2022-12-24T22:38:09.065Z,6.93
2022-12-24T22:40:38.437Z,8.40
2022-12-24T22:43:04.928Z,11.02
2022-12-24T22:45:31.610Z,9.93
2022-12-24T22:47:58.094Z,9.77
2022-12-24T22:50:24.588Z,6.50
2022-12-24T22:52:52.704Z,11.85
2022-12-24T22:55:19.439Z,9.82
2022-12-24T22:57:45.985Z,6.68
2022-12-24T23:00:36.901Z,10.10
2022-12-24T23:03:05.145Z,6.27
2022-12-24T23:05:31.941Z,8.57
2022-12-24T23:07:58.577Z,6.38
2022-12-24T23:10:25.093Z,7.85
2022-12-24T23:13:14.851Z,9.38
2022-12-24T23:15:42.379Z,7.27
2022-12-24T23:18:09.105Z,8.02
2022-12-24T23:20:40.852Z,9.77
2022-12-24T23:23:07.327Z,8.35
2022-12-24T23:25:34.063Z,7.78
2022-12-24T23:28:00.839Z,6.83
2022-12-24T23:30:27.402Z,3.90
2022-12-24T23:32:54.919Z,7.28
2022-12-24T23:35:21.648Z,9.50
2022-12-24T23:37:48.235Z,10.43
2022-12-24T23:40:14.740Z,10.00
2022-12-24T23:42:41.262Z,9.95
2022-12-24T23:45:08.255Z,6.43
2022-12-24T23:47:35.665Z,9.90
2022-12-24T23:50:02.291Z,4.45
2022-12-24T23:52:28.819Z,7.27
2022-12-24T23:54:55.365Z,5.05
2022-12-24T23:57:21.879Z,4.90
2022-12-24T23:59:48.550Z,15.68
